sensor_id;sensor_type;location;lat;lon;timestamp;P1;durP1;ratioP1;P2;durP2;ratioP2
77326;SDS011;66399;52.322;20.980;2023-04-07T00:00:16;11.30;;;4.70;;
77326;SDS011;66399;52.322;20.980;2023-04-07T00:04:41;11.00;;;4.50;;
77326;SDS011;66399;52.322;20.980;2023-04-07T00:08:47;12.50;;;5.30;;
77326;SDS011;66399;52.322;20.980;2023-04-07T00:12:52;13.40;;;5.20;;
77326;SDS011;66399;52.322;20.980;2023-04-07T00:16:57;11.10;;;5.40;;
77326;SDS011;66399;52.322;20.980;2023-04-07T00:21:02;11.50;;;4.80;;
77326;SDS011;66399;52.322;20.980;2023-04-07T00:25:08;11.50;;;4.50;;
77326;SDS011;66399;52.322;20.980;2023-04-07T00:29:14;13.90;;;6.10;;
77326;SDS011;66399;52.322;20.980;2023-04-07T00:33:19;10.10;;;5.00;;
77326;SDS011;66399;52.322;20.980;2023-04-07T00:37:24;12.60;;;4.90;;
77326;SDS011;66399;52.322;20.980;2023-04-07T00:41:30;11.30;;;5.30;;
77326;SDS011;66399;52.322;20.980;2023-04-07T00:45:37;13.20;;;5.60;;
77326;SDS011;66399;52.322;20.980;2023-04-07T00:49:43;8.90;;;4.20;;
77326;SDS011;66399;52.322;20.980;2023-04-07T00:53:48;12.70;;;5.60;;
77326;SDS011;66399;52.322;20.980;2023-04-07T00:57:53;10.10;;;4.70;;
77326;SDS011;66399;52.322;20.980;2023-04-07T01:02:01;12.60;;;5.20;;
77326;SDS011;66399;52.322;20.980;2023-04-07T01:06:08;10.60;;;5.30;;
77326;SDS011;66399;52.322;20.980;2023-04-07T01:10:18;14.80;;;6.00;;
77326;SDS011;66399;52.322;20.980;2023-04-07T01:14:24;12.90;;;6.00;;
77326;SDS011;66399;52.322;20.980;2023-04-07T01:18:32;7.40;;;3.20;;
77326;SDS011;66399;52.322;20.980;2023-04-07T01:22:39;10.90;;;5.30;;
77326;SDS011;66399;52.322;20.980;2023-04-07T01:26:45;11.10;;;5.50;;
77326;SDS011;66399;52.322;20.980;2023-04-07T01:30:51;11.70;;;5.30;;
77326;SDS011;66399;52.322;20.980;2023-04-07T01:34:58;13.10;;;5.90;;
77326;SDS011;66399;52.322;20.980;2023-04-07T01:39:04;13.20;;;5.90;;
77326;SDS011;66399;52.322;20.980;2023-04-07T01:43:09;13.90;;;6.30;;
77326;SDS011;66399;52.322;20.980;2023-04-07T01:47:15;13.30;;;6.30;;
77326;SDS011;66399;52.322;20.980;2023-04-07T01:51:20;14.80;;;6.50;;
77326;SDS011;66399;52.322;20.980;2023-04-07T01:55:26;13.00;;;6.20;;
77326;SDS011;66399;52.322;20.980;2023-04-07T01:59:32;14.70;;;6.90;;
77326;SDS011;66399;52.322;20.980;2023-04-07T02:03:39;15.00;;;6.60;;
77326;SDS011;66399;52.322;20.980;2023-04-07T02:07:49;16.20;;;7.30;;
77326;SDS011;66399;52.322;20.980;2023-04-07T02:11:56;12.70;;;6.10;;
77326;SDS011;66399;52.322;20.980;2023-04-07T02:16:02;14.50;;;7.50;;
77326;SDS011;66399;52.322;20.980;2023-04-07T02:20:08;8.10;;;4.20;;
77326;SDS011;66399;52.322;20.980;2023-04-07T02:24:17;14.10;;;7.50;;
77326;SDS011;66399;52.322;20.980;2023-04-07T02:28:23;13.60;;;6.60;;
77326;SDS011;66399;52.322;20.980;2023-04-07T02:32:28;18.30;;;8.00;;
77326;SDS011;66399;52.322;20.980;2023-04-07T02:36:34;21.00;;;9.50;;
77326;SDS011;66399;52.322;20.980;2023-04-07T02:40:39;20.40;;;8.10;;
77326;SDS011;66399;52.322;20.980;2023-04-07T02:44:44;14.70;;;7.40;;
77326;SDS011;66399;52.322;20.980;2023-04-07T02:48:49;17.50;;;8.30;;
77326;SDS011;66399;52.322;20.980;2023-04-07T02:56:59;15.10;;;7.40;;
77326;SDS011;66399;52.322;20.980;2023-04-07T03:01:05;18.60;;;8.40;;
77326;SDS011;66399;52.322;20.980;2023-04-07T03:05:10;18.50;;;9.10;;
77326;SDS011;66399;52.322;20.980;2023-04-07T03:09:15;20.60;;;8.30;;
77326;SDS011;66399;52.322;20.980;2023-04-07T03:13:21;16.80;;;8.10;;
77326;SDS011;66399;52.322;20.980;2023-04-07T03:17:26;15.70;;;7.50;;
77326;SDS011;66399;52.322;20.980;2023-04-07T03:21:31;20.10;;;8.20;;
77326;SDS011;66399;52.322;20.980;2023-04-07T03:29:41;16.20;;;7.40;;
77326;SDS011;66399;52.322;20.980;2023-04-07T03:33:47;15.70;;;7.50;;
77326;SDS011;66399;52.322;20.980;2023-04-07T03:37:53;19.70;;;8.70;;
77326;SDS011;66399;52.322;20.980;2023-04-07T03:41:58;20.20;;;8.80;;
77326;SDS011;66399;52.322;20.980;2023-04-07T03:46:03;13.70;;;7.00;;
77326;SDS011;66399;52.322;20.980;2023-04-07T03:50:09;14.90;;;6.50;;
77326;SDS011;66399;52.322;20.980;2023-04-07T03:58:18;19.60;;;8.70;;
77326;SDS011;66399;52.322;20.980;2023-04-07T04:02:23;16.10;;;8.20;;
77326;SDS011;66399;52.322;20.980;2023-04-07T04:06:29;19.20;;;9.00;;
77326;SDS011;66399;52.322;20.980;2023-04-07T04:10:34;21.10;;;10.00;;
77326;SDS011;66399;52.322;20.980;2023-04-07T04:14:40;18.90;;;9.00;;
77326;SDS011;66399;52.322;20.980;2023-04-07T04:18:45;18.60;;;9.20;;
77326;SDS011;66399;52.322;20.980;2023-04-07T04:22:51;18.20;;;9.00;;
77326;SDS011;66399;52.322;20.980;2023-04-07T04:26:56;18.70;;;8.10;;
77326;SDS011;66399;52.322;20.980;2023-04-07T04:31:01;18.40;;;9.10;;
77326;SDS011;66399;52.322;20.980;2023-04-07T04:35:07;15.00;;;8.00;;
77326;SDS011;66399;52.322;20.980;2023-04-07T04:39:13;18.60;;;9.50;;
77326;SDS011;66399;52.322;20.980;2023-04-07T04:43:18;16.00;;;7.00;;
77326;SDS011;66399;52.322;20.980;2023-04-07T04:51:27;17.20;;;8.80;;
77326;SDS011;66399;52.322;20.980;2023-04-07T04:55:33;15.80;;;8.50;;
77326;SDS011;66399;52.322;20.980;2023-04-07T04:59:38;16.50;;;8.50;;
77326;SDS011;66399;52.322;20.980;2023-04-07T05:03:47;16.60;;;8.20;;
77326;SDS011;66399;52.322;20.980;2023-04-07T05:07:52;17.20;;;8.40;;
77326;SDS011;66399;52.322;20.980;2023-04-07T05:11:57;16.20;;;8.90;;
77326;SDS011;66399;52.322;20.980;2023-04-07T05:20:08;17.00;;;9.20;;
77326;SDS011;66399;52.322;20.980;2023-04-07T05:24:13;16.30;;;8.80;;
77326;SDS011;66399;52.322;20.980;2023-04-07T05:28:18;12.30;;;7.60;;
77326;SDS011;66399;52.322;20.980;2023-04-07T05:32:24;12.70;;;6.70;;
77326;SDS011;66399;52.322;20.980;2023-04-07T05:36:30;14.00;;;7.80;;
77326;SDS011;66399;52.322;20.980;2023-04-07T05:40:35;17.50;;;8.70;;
77326;SDS011;66399;52.322;20.980;2023-04-07T05:44:40;10.60;;;6.30;;
77326;SDS011;66399;52.322;20.980;2023-04-07T05:48:45;12.80;;;7.20;;
77326;SDS011;66399;52.322;20.980;2023-04-07T05:52:53;12.20;;;6.60;;
77326;SDS011;66399;52.322;20.980;2023-04-07T05:56:59;14.30;;;7.90;;
77326;SDS011;66399;52.322;20.980;2023-04-07T06:01:04;13.40;;;7.60;;
77326;SDS011;66399;52.322;20.980;2023-04-07T06:05:09;13.90;;;7.50;;
77326;SDS011;66399;52.322;20.980;2023-04-07T06:09:14;16.60;;;8.50;;
77326;SDS011;66399;52.322;20.980;2023-04-07T06:13:20;13.80;;;7.40;;
77326;SDS011;66399;52.322;20.980;2023-04-07T06:17:25;14.80;;;8.20;;
77326;SDS011;66399;52.322;20.980;2023-04-07T06:21:30;12.10;;;6.50;;
77326;SDS011;66399;52.322;20.980;2023-04-07T06:25:35;11.70;;;6.00;;
77326;SDS011;66399;52.322;20.980;2023-04-07T06:29:41;14.70;;;7.10;;
77326;SDS011;66399;52.322;20.980;2023-04-07T06:33:46;14.90;;;7.40;;
77326;SDS011;66399;52.322;20.980;2023-04-07T06:37:52;11.00;;;6.40;;
77326;SDS011;66399;52.322;20.980;2023-04-07T06:41:57;15.40;;;7.50;;
77326;SDS011;66399;52.322;20.980;2023-04-07T06:46:02;13.20;;;7.20;;
77326;SDS011;66399;52.322;20.980;2023-04-07T06:50:08;11.30;;;6.40;;
77326;SDS011;66399;52.322;20.980;2023-04-07T06:54:13;10.90;;;5.90;;
77326;SDS011;66399;52.322;20.980;2023-04-07T06:58:19;11.80;;;6.40;;
77326;SDS011;66399;52.322;20.980;2023-04-07T07:06:29;10.30;;;5.70;;
77326;SDS011;66399;52.322;20.980;2023-04-07T07:10:34;10.60;;;6.70;;
77326;SDS011;66399;52.322;20.980;2023-04-07T07:18:43;10.40;;;6.00;;
77326;SDS011;66399;52.322;20.980;2023-04-07T07:22:49;11.90;;;6.10;;
77326;SDS011;66399;52.322;20.980;2023-04-07T07:26:55;10.50;;;5.50;;
77326;SDS011;66399;52.322;20.980;2023-04-07T07:31:00;13.30;;;6.90;;
77326;SDS011;66399;52.322;20.980;2023-04-07T07:35:13;12.70;;;7.70;;
77326;SDS011;66399;52.322;20.980;2023-04-07T07:39:18;9.30;;;6.20;;
77326;SDS011;66399;52.322;20.980;2023-04-07T07:47:27;18.00;;;12.60;;
77326;SDS011;66399;52.322;20.980;2023-04-07T07:51:33;12.00;;;6.70;;
77326;SDS011;66399;52.322;20.980;2023-04-07T07:55:38;10.40;;;6.00;;
77326;SDS011;66399;52.322;20.980;2023-04-07T08:03:47;11.40;;;6.30;;
77326;SDS011;66399;52.322;20.980;2023-04-07T08:07:53;7.50;;;5.00;;
77326;SDS011;66399;52.322;20.980;2023-04-07T08:11:58;10.60;;;6.40;;
77326;SDS011;66399;52.322;20.980;2023-04-07T08:20:08;10.10;;;5.40;;
77326;SDS011;66399;52.322;20.980;2023-04-07T08:24:14;11.90;;;6.30;;
77326;SDS011;66399;52.322;20.980;2023-04-07T08:32:24;10.00;;;5.00;;
77326;SDS011;66399;52.322;20.980;2023-04-07T08:44:37;9.90;;;5.30;;
77326;SDS011;66399;52.322;20.980;2023-04-07T08:48:43;11.00;;;6.60;;
77326;SDS011;66399;52.322;20.980;2023-04-07T08:52:49;11.90;;;6.50;;
77326;SDS011;66399;52.322;20.980;2023-04-07T08:56:54;12.80;;;7.90;;
77326;SDS011;66399;52.322;20.980;2023-04-07T09:01:00;11.70;;;6.40;;
77326;SDS011;66399;52.322;20.980;2023-04-07T09:09:39;8.70;;;5.80;;
77326;SDS011;66399;52.322;20.980;2023-04-07T09:18:04;12.50;;;6.00;;
77326;SDS011;66399;52.322;20.980;2023-04-07T09:22:09;10.80;;;5.50;;
77326;SDS011;66399;52.322;20.980;2023-04-07T09:26:26;9.40;;;5.70;;
77326;SDS011;66399;52.322;20.980;2023-04-07T09:30:32;10.00;;;5.20;;
77326;SDS011;66399;52.322;20.980;2023-04-07T09:44:29;10.00;;;5.50;;
77326;SDS011;66399;52.322;20.980;2023-04-07T09:57:29;8.50;;;4.70;;
77326;SDS011;66399;52.322;20.980;2023-04-07T10:01:34;10.80;;;6.10;;
77326;SDS011;66399;52.322;20.980;2023-04-07T10:05:49;9.00;;;6.00;;
77326;SDS011;66399;52.322;20.980;2023-04-07T10:09:54;8.10;;;6.10;;
77326;SDS011;66399;52.322;20.980;2023-04-07T10:13:59;9.40;;;5.50;;
77326;SDS011;66399;52.322;20.980;2023-04-07T10:18:06;8.50;;;5.70;;
77326;SDS011;66399;52.322;20.980;2023-04-07T10:22:12;9.90;;;6.00;;
77326;SDS011;66399;52.322;20.980;2023-04-07T10:53:06;11.90;;;5.80;;
77326;SDS011;66399;52.322;20.980;2023-04-07T10:57:12;10.40;;;5.10;;
77326;SDS011;66399;52.322;20.980;2023-04-07T11:01:22;8.60;;;5.10;;
77326;SDS011;66399;52.322;20.980;2023-04-07T11:05:27;8.90;;;5.70;;
77326;SDS011;66399;52.322;20.980;2023-04-07T11:09:33;8.40;;;5.50;;
77326;SDS011;66399;52.322;20.980;2023-04-07T11:26:56;9.20;;;5.50;;
77326;SDS011;66399;52.322;20.980;2023-04-07T11:31:01;9.10;;;5.30;;
77326;SDS011;66399;52.322;20.980;2023-04-07T11:35:27;7.50;;;4.80;;
77326;SDS011;66399;52.322;20.980;2023-04-07T11:44:03;10.00;;;5.20;;
77326;SDS011;66399;52.322;20.980;2023-04-07T11:52:49;9.90;;;5.10;;
77326;SDS011;66399;52.322;20.980;2023-04-07T11:56:54;7.10;;;4.30;;
77326;SDS011;66399;52.322;20.980;2023-04-07T12:01:00;8.60;;;5.00;;
77326;SDS011;66399;52.322;20.980;2023-04-07T12:13:50;8.90;;;5.00;;
77326;SDS011;66399;52.322;20.980;2023-04-07T12:18:02;8.80;;;4.90;;
77326;SDS011;66399;52.322;20.980;2023-04-07T12:22:08;8.50;;;4.80;;
77326;SDS011;66399;52.322;20.980;2023-04-07T12:26:14;6.60;;;4.50;;
77326;SDS011;66399;52.322;20.980;2023-04-07T12:35:10;8.30;;;4.80;;
77326;SDS011;66399;52.322;20.980;2023-04-07T12:39:16;9.00;;;5.70;;
77326;SDS011;66399;52.322;20.980;2023-04-07T12:43:40;7.70;;;4.80;;
77326;SDS011;66399;52.322;20.980;2023-04-07T12:52:06;8.30;;;4.50;;
77326;SDS011;66399;52.322;20.980;2023-04-07T12:56:12;8.30;;;4.00;;
77326;SDS011;66399;52.322;20.980;2023-04-07T13:00:34;5.80;;;3.50;;
77326;SDS011;66399;52.322;20.980;2023-04-07T13:09:00;7.20;;;4.10;;
77326;SDS011;66399;52.322;20.980;2023-04-07T13:13:13;5.10;;;2.60;;
77326;SDS011;66399;52.322;20.980;2023-04-07T13:17:18;3.50;;;1.80;;
77326;SDS011;66399;52.322;20.980;2023-04-07T13:21:39;5.80;;;2.80;;
77326;SDS011;66399;52.322;20.980;2023-04-07T13:34:38;4.30;;;2.50;;
77326;SDS011;66399;52.322;20.980;2023-04-07T13:38:43;5.00;;;2.60;;
77326;SDS011;66399;52.322;20.980;2023-04-07T13:42:48;4.60;;;2.50;;
77326;SDS011;66399;52.322;20.980;2023-04-07T13:46:57;5.10;;;2.50;;
77326;SDS011;66399;52.322;20.980;2023-04-07T13:51:03;4.10;;;2.30;;
77326;SDS011;66399;52.322;20.980;2023-04-07T13:55:09;5.30;;;2.60;;
77326;SDS011;66399;52.322;20.980;2023-04-07T14:03:28;5.40;;;2.20;;
77326;SDS011;66399;52.322;20.980;2023-04-07T14:07:34;3.90;;;2.30;;
77326;SDS011;66399;52.322;20.980;2023-04-07T14:11:40;4.20;;;2.20;;
77326;SDS011;66399;52.322;20.980;2023-04-07T14:20:23;2.50;;;1.30;;
77326;SDS011;66399;52.322;20.980;2023-04-07T14:24:30;4.60;;;2.80;;
77326;SDS011;66399;52.322;20.980;2023-04-07T14:28:48;3.60;;;1.80;;
77326;SDS011;66399;52.322;20.980;2023-04-07T14:32:53;7.90;;;4.10;;
77326;SDS011;66399;52.322;20.980;2023-04-07T14:41:12;3.10;;;1.60;;
77326;SDS011;66399;52.322;20.980;2023-04-07T14:45:18;3.70;;;2.00;;
77326;SDS011;66399;52.322;20.980;2023-04-07T14:53:47;4.50;;;2.30;;
77326;SDS011;66399;52.322;20.980;2023-04-07T15:02:46;5.10;;;2.20;;
77326;SDS011;66399;52.322;20.980;2023-04-07T15:06:51;4.20;;;2.00;;
77326;SDS011;66399;52.322;20.980;2023-04-07T15:11:06;3.60;;;2.10;;
77326;SDS011;66399;52.322;20.980;2023-04-07T15:15:11;4.60;;;1.70;;
77326;SDS011;66399;52.322;20.980;2023-04-07T15:19:30;2.90;;;1.50;;
77326;SDS011;66399;52.322;20.980;2023-04-07T15:27:50;3.90;;;1.60;;
77326;SDS011;66399;52.322;20.980;2023-04-07T15:31:56;3.10;;;1.50;;
77326;SDS011;66399;52.322;20.980;2023-04-07T15:40:19;3.70;;;1.80;;
77326;SDS011;66399;52.322;20.980;2023-04-07T15:44:25;3.40;;;1.60;;
77326;SDS011;66399;52.322;20.980;2023-04-07T15:48:36;5.20;;;1.80;;
77326;SDS011;66399;52.322;20.980;2023-04-07T15:52:41;4.50;;;2.00;;
77326;SDS011;66399;52.322;20.980;2023-04-07T15:56:46;4.30;;;1.50;;
77326;SDS011;66399;52.322;20.980;2023-04-07T16:23:20;4.80;;;2.20;;
77326;SDS011;66399;52.322;20.980;2023-04-07T16:27:25;4.60;;;2.00;;
77326;SDS011;66399;52.322;20.980;2023-04-07T16:40:22;3.00;;;1.50;;
77326;SDS011;66399;52.322;20.980;2023-04-07T16:44:28;4.30;;;2.20;;
77326;SDS011;66399;52.322;20.980;2023-04-07T16:48:45;3.70;;;2.00;;
77326;SDS011;66399;52.322;20.980;2023-04-07T16:52:51;3.40;;;1.70;;
77326;SDS011;66399;52.322;20.980;2023-04-07T17:06:09;4.30;;;2.20;;
77326;SDS011;66399;52.322;20.980;2023-04-07T17:10:14;3.30;;;1.70;;
77326;SDS011;66399;52.322;20.980;2023-04-07T17:14:20;3.60;;;1.60;;
77326;SDS011;66399;52.322;20.980;2023-04-07T17:18:26;2.60;;;1.30;;
77326;SDS011;66399;52.322;20.980;2023-04-07T17:26:35;5.00;;;2.00;;
77326;SDS011;66399;52.322;20.980;2023-04-07T17:30:41;3.50;;;1.80;;
77326;SDS011;66399;52.322;20.980;2023-04-07T17:38:50;3.00;;;1.50;;
77326;SDS011;66399;52.322;20.980;2023-04-07T17:46:59;2.90;;;1.70;;
77326;SDS011;66399;52.322;20.980;2023-04-07T17:51:05;4.00;;;1.80;;
77326;SDS011;66399;52.322;20.980;2023-04-07T17:59:15;3.50;;;1.90;;
77326;SDS011;66399;52.322;20.980;2023-04-07T18:03:20;4.30;;;1.90;;
77326;SDS011;66399;52.322;20.980;2023-04-07T18:07:26;4.20;;;2.00;;
77326;SDS011;66399;52.322;20.980;2023-04-07T18:11:32;5.90;;;2.70;;
77326;SDS011;66399;52.322;20.980;2023-04-07T18:19:41;4.50;;;2.30;;
77326;SDS011;66399;52.322;20.980;2023-04-07T18:23:47;5.10;;;2.00;;
77326;SDS011;66399;52.322;20.980;2023-04-07T18:27:52;3.20;;;1.60;;
77326;SDS011;66399;52.322;20.980;2023-04-07T18:31:57;5.30;;;2.00;;
77326;SDS011;66399;52.322;20.980;2023-04-07T18:36:04;4.70;;;1.60;;
77326;SDS011;66399;52.322;20.980;2023-04-07T18:40:11;3.90;;;1.80;;
77326;SDS011;66399;52.322;20.980;2023-04-07T18:44:16;2.50;;;1.10;;
77326;SDS011;66399;52.322;20.980;2023-04-07T18:48:24;2.90;;;1.60;;
77326;SDS011;66399;52.322;20.980;2023-04-07T18:52:29;3.10;;;1.60;;
77326;SDS011;66399;52.322;20.980;2023-04-07T18:56:35;2.70;;;1.20;;
77326;SDS011;66399;52.322;20.980;2023-04-07T19:00:40;3.30;;;1.70;;
77326;SDS011;66399;52.322;20.980;2023-04-07T19:04:46;2.90;;;1.50;;
77326;SDS011;66399;52.322;20.980;2023-04-07T19:08:52;3.30;;;1.80;;
77326;SDS011;66399;52.322;20.980;2023-04-07T19:13:00;5.30;;;2.60;;
77326;SDS011;66399;52.322;20.980;2023-04-07T19:17:05;6.40;;;2.90;;
77326;SDS011;66399;52.322;20.980;2023-04-07T19:21:10;9.80;;;4.00;;
77326;SDS011;66399;52.322;20.980;2023-04-07T19:25:16;5.50;;;2.50;;
77326;SDS011;66399;52.322;20.980;2023-04-07T19:29:21;8.50;;;3.80;;
77326;SDS011;66399;52.322;20.980;2023-04-07T19:37:31;12.70;;;4.40;;
77326;SDS011;66399;52.322;20.980;2023-04-07T19:41:36;6.50;;;2.80;;
77326;SDS011;66399;52.322;20.980;2023-04-07T19:45:42;9.60;;;3.70;;
77326;SDS011;66399;52.322;20.980;2023-04-07T19:49:48;15.50;;;6.20;;
77326;SDS011;66399;52.322;20.980;2023-04-07T19:53:53;8.60;;;2.70;;
77326;SDS011;66399;52.322;20.980;2023-04-07T19:57:58;6.20;;;3.50;;
77326;SDS011;66399;52.322;20.980;2023-04-07T20:02:03;5.20;;;2.40;;
77326;SDS011;66399;52.322;20.980;2023-04-07T20:06:09;4.30;;;2.40;;
77326;SDS011;66399;52.322;20.980;2023-04-07T20:10:17;5.00;;;2.60;;
77326;SDS011;66399;52.322;20.980;2023-04-07T20:14:22;4.50;;;2.10;;
77326;SDS011;66399;52.322;20.980;2023-04-07T20:18:27;4.60;;;2.50;;
77326;SDS011;66399;52.322;20.980;2023-04-07T20:22:33;3.10;;;1.60;;
77326;SDS011;66399;52.322;20.980;2023-04-07T20:26:38;5.80;;;1.90;;
77326;SDS011;66399;52.322;20.980;2023-04-07T20:30:43;4.30;;;2.10;;
77326;SDS011;66399;52.322;20.980;2023-04-07T20:34:49;3.40;;;1.70;;
77326;SDS011;66399;52.322;20.980;2023-04-07T20:38:54;4.60;;;2.90;;
77326;SDS011;66399;52.322;20.980;2023-04-07T20:43:00;4.70;;;2.40;;
77326;SDS011;66399;52.322;20.980;2023-04-07T20:47:09;3.10;;;1.70;;
77326;SDS011;66399;52.322;20.980;2023-04-07T20:51:14;5.00;;;1.80;;
77326;SDS011;66399;52.322;20.980;2023-04-07T20:55:20;3.30;;;1.90;;
77326;SDS011;66399;52.322;20.980;2023-04-07T20:59:25;3.40;;;1.50;;
77326;SDS011;66399;52.322;20.980;2023-04-07T21:03:31;3.80;;;2.20;;
77326;SDS011;66399;52.322;20.980;2023-04-07T21:11:40;3.40;;;1.70;;
77326;SDS011;66399;52.322;20.980;2023-04-07T21:15:45;3.50;;;1.90;;
77326;SDS011;66399;52.322;20.980;2023-04-07T21:19:50;4.60;;;2.30;;
77326;SDS011;66399;52.322;20.980;2023-04-07T21:23:56;4.90;;;2.40;;
77326;SDS011;66399;52.322;20.980;2023-04-07T21:28:01;3.50;;;1.80;;
77326;SDS011;66399;52.322;20.980;2023-04-07T21:32:07;3.80;;;2.20;;
77326;SDS011;66399;52.322;20.980;2023-04-07T21:36:13;3.30;;;2.00;;
77326;SDS011;66399;52.322;20.980;2023-04-07T21:40:19;3.60;;;2.00;;
77326;SDS011;66399;52.322;20.980;2023-04-07T21:44:24;3.90;;;1.90;;
77326;SDS011;66399;52.322;20.980;2023-04-07T21:52:33;4.10;;;2.50;;
77326;SDS011;66399;52.322;20.980;2023-04-07T21:56:39;6.00;;;2.90;;
77326;SDS011;66399;52.322;20.980;2023-04-07T22:00:45;4.70;;;2.30;;
77326;SDS011;66399;52.322;20.980;2023-04-07T22:04:50;6.20;;;2.30;;
77326;SDS011;66399;52.322;20.980;2023-04-07T22:08:56;4.50;;;2.50;;
77326;SDS011;66399;52.322;20.980;2023-04-07T22:13:04;5.20;;;2.40;;
77326;SDS011;66399;52.322;20.980;2023-04-07T22:17:10;4.90;;;2.40;;
77326;SDS011;66399;52.322;20.980;2023-04-07T22:21:15;5.40;;;2.60;;
77326;SDS011;66399;52.322;20.980;2023-04-07T22:25:21;5.80;;;2.80;;
77326;SDS011;66399;52.322;20.980;2023-04-07T22:29:26;6.00;;;2.90;;
77326;SDS011;66399;52.322;20.980;2023-04-07T22:33:31;7.20;;;3.50;;
77326;SDS011;66399;52.322;20.980;2023-04-07T22:41:41;3.40;;;2.00;;
77326;SDS011;66399;52.322;20.980;2023-04-07T22:45:46;6.70;;;3.40;;
77326;SDS011;66399;52.322;20.980;2023-04-07T22:49:51;4.10;;;2.10;;
77326;SDS011;66399;52.322;20.980;2023-04-07T22:53:56;5.90;;;3.30;;
77326;SDS011;66399;52.322;20.980;2023-04-07T22:58:04;5.70;;;3.10;;
77326;SDS011;66399;52.322;20.980;2023-04-07T23:02:09;5.90;;;2.80;;
77326;SDS011;66399;52.322;20.980;2023-04-07T23:06:14;6.50;;;3.00;;
77326;SDS011;66399;52.322;20.980;2023-04-07T23:10:20;6.00;;;3.70;;
77326;SDS011;66399;52.322;20.980;2023-04-07T23:14:25;5.60;;;3.00;;
77326;SDS011;66399;52.322;20.980;2023-04-07T23:18:30;5.40;;;3.10;;
77326;SDS011;66399;52.322;20.980;2023-04-07T23:22:36;6.90;;;3.50;;
77326;SDS011;66399;52.322;20.980;2023-04-07T23:26:41;5.30;;;2.70;;
77326;SDS011;66399;52.322;20.980;2023-04-07T23:30:46;5.00;;;2.60;;
77326;SDS011;66399;52.322;20.980;2023-04-07T23:34:51;7.20;;;3.40;;
77326;SDS011;66399;52.322;20.980;2023-04-07T23:38:59;8.00;;;2.90;;
77326;SDS011;66399;52.322;20.980;2023-04-07T23:43:05;5.90;;;3.60;;
77326;SDS011;66399;52.322;20.980;2023-04-07T23:47:11;5.60;;;2.70;;
77326;SDS011;66399;52.322;20.980;2023-04-07T23:51:16;5.70;;;2.90;;
77326;SDS011;66399;52.322;20.980;2023-04-07T23:55:22;6.50;;;3.30;;
77326;SDS011;66399;52.322;20.980;2023-04-07T23:59:27;5.10;;;3.00;;
